Terminal Aerodrome Forecast
Issued by NWS Jacksonville, FL

Home | Current Version | Previous Version | Text Only | Print | Product List | Glossary On
Versions: 1 2 3 4 5 6 7 8 9 10 11 12 13 14 15
496
FTUS42 KJAX 251732
TAFGNV
TAF
KGNV 251732Z 2518/2618 05007KT P6SM VCTS BKN035CB
     FM260000 07005KT P6SM VCSH SCT050 BKN250
     FM260300 VRB03KT P6SM BKN250
     FM261000 00000KT 4SM BR FEW003
     FM261300 VRB04KT P6SM SCT030 SCT250=

USA.gov is the U.S. government's official web portal to all federal, state and local government web resources and services.